Date,TemperatureHighF,TemperatureAvgF,TemperatureLowF,DewpointHighF,DewpointAvgF,DewpointLowF,HumidityHigh,HumidityAvg,HumidityLow,PressureMaxIn,PressureMinIn,WindSpeedMaxMPH,WindSpeedAvgMPH,GustSpeedMaxMPH,PrecipitationSumIn
2013-1-1,50.0,37.8,32.0,29.0,22.8,-99.9,88,60,30,0.00,40.00,0,-999,0,0.00
2013-1-2,56.0,43.8,38.0,30.0,21.5,14.0,59,42,24,0.00,40.00,0,-999,0,0.00
2013-1-3,54.0,45.2,39.0,31.0,23.5,-99.9,62,46,27,0.00,40.00,0,-999,0,0.00
2013-1-4,56.0,47.0,43.0,32.0,23.9,12.0,63,41,25,0.00,40.00,0,-999,0,0.00
2013-1-5,49.0,43.1,38.0,36.0,30.8,25.0,87,63,40,0.00,40.00,0,-999,0,0.00
2013-1-6,41.0,37.7,35.0,39.0,35.2,30.0,99,91,69,0.00,40.00,0,-999,0,0.07
2013-1-7,52.0,46.5,38.0,41.0,34.0,23.0,75,61,42,0.00,40.00,0,-999,0,0.00
2013-1-8,65.0,51.2,46.0,45.0,40.1,36.0,82,66,39,0.00,40.00,0,-999,0,0.00
2013-1-9,49.0,42.9,30.0,40.0,34.0,28.0,99,73,48,0.00,40.00,0,-999,0,0.47
2013-1-10,39.0,29.4,27.0,33.0,28.5,26.0,99,96,79,0.00,40.00,0,-999,0,0.13
2013-1-11,37.0,28.2,24.0,29.0,25.8,21.0,97,91,62,0.00,40.00,0,-999,0,0.06
2013-1-12,40.0,28.0,22.0,24.0,16.7,9.0,89,64,34,0.00,40.00,0,-999,0,0.00
2013-1-13,42.0,28.8,24.0,14.0,5.7,-99.9,65,41,25,0.00,40.00,0,-999,0,0.00
2013-1-16,61.0,54.1,47.0,36.0,6.8,-99.9,51,29,9,0.00,40.00,0,-999,0,0.00
2013-1-17,67.0,56.7,49.0,31.0,16.2,-7.0,42,23,7,0.00,40.00,0,-999,0,0.00
2013-1-18,64.0,53.5,48.0,29.0,22.0,11.0,40,29,21,0.00,40.00,0,-999,0,0.00
2013-1-19,65.0,55.4,50.0,31.0,20.1,-99.9,41,28,17,0.00,40.00,0,-999,0,0.00
2013-1-20,64.0,54.8,49.0,32.0,20.6,-99.9,49,33,23,0.00,40.00,0,-999,0,0.00
2013-1-21,65.0,56.5,52.0,34.0,21.1,6.0,45,26,14,0.00,40.00,0,-999,0,0.00
2013-1-22,65.0,55.3,50.0,33.0,20.9,2.0,43,27,12,0.00,40.00,0,-999,0,0.00
2013-1-23,56.0,49.3,42.0,44.0,18.2,-99.9,97,50,23,0.00,40.00,0,-999,0,0.07
2013-1-24,51.0,47.9,44.0,49.0,46.5,43.0,99,94,80,0.00,40.00,0,-999,0,0.04
2013-1-25,52.0,49.1,47.0,52.0,49.0,47.0,99,98,95,0.00,40.00,0,-999,0,0.20
2013-1-26,48.0,44.0,35.0,48.0,43.7,35.0,99,98,91,0.00,40.00,0,-999,0,0.04
2013-1-27,44.0,34.5,31.0,37.0,32.5,26.0,99,92,69,0.00,40.00,0,-999,0,0.37
2013-1-28,47.0,37.0,31.0,32.0,26.8,21.0,77,66,40,0.00,40.00,0,-999,0,0.00
2013-1-29,52.0,43.1,36.0,41.0,33.1,28.0,80,68,52,0.00,40.00,0,-999,0,0.00
2013-1-30,64.0,51.2,45.0,45.0,31.9,-99.9,87,62,39,0.00,40.00,0,-999,0,0.00
2013-1-31,60.0,51.9,47.0,43.0,36.7,29.0,75,56,44,0.00,40.00,0,-999,0,0.00
2013-2-1,64.0,53.3,48.0,42.0,34.2,27.0,64,48,37,0.00,40.00,0,-999,0,0.00
2013-2-2,61.0,53.3,50.0,40.0,35.3,30.0,61,50,37,0.00,40.00,0,-999,0,0.00
2013-2-3,62.0,51.3,48.0,44.0,30.1,22.0,75,45,29,0.00,40.00,0,-999,0,0.00
2013-2-4,63.0,53.4,50.0,39.0,27.6,13.0,64,39,20,0.00,40.00,0,-999,0,0.00
2013-2-5,53.0,46.2,39.0,44.0,36.8,27.0,98,71,47,0.00,40.00,0,-999,0,0.00
2013-2-6,53.0,42.5,35.0,36.0,30.9,26.0,94,65,36,0.00,40.00,0,-999,0,0.00
2013-2-7,38.0,35.7,33.0,36.0,33.8,32.0,99,93,80,0.00,40.00,0,-999,0,0.13
2013-2-8,45.0,36.7,31.0,31.0,23.9,19.0,83,59,39,0.00,40.00,0,-999,0,0.16
2013-2-9,52.0,38.4,31.0,25.0,19.5,16.0,61,47,27,0.00,40.00,0,-999,0,0.00
2013-2-10,53.0,41.8,36.0,26.0,21.7,16.0,63,45,28,0.00,40.00,0,-999,0,0.00
2013-2-11,58.0,43.3,34.0,31.0,20.2,14.0,57,40,24,0.00,40.00,0,-999,0,0.00
2013-2-12,51.0,44.0,37.0,36.0,28.4,18.0,73,55,34,0.00,40.00,0,-999,0,0.00
2013-2-13,61.0,49.4,40.0,43.0,30.8,24.0,67,49,38,0.00,40.00,0,-999,0,0.00
2013-2-14,68.0,53.5,45.0,37.0,31.0,24.0,58,43,26,0.00,40.00,0,-999,0,0.00
2013-2-15,66.0,55.2,49.0,39.0,26.9,16.0,51,34,24,0.00,40.00,0,-999,0,0.00
2013-2-16,62.0,54.2,48.0,42.0,30.4,19.0,64,41,26,0.00,40.00,0,-999,0,0.00
2013-2-17,59.0,49.7,45.0,37.0,33.8,30.0,68,54,38,0.00,40.00,0,-999,0,0.00
2013-2-18,54.0,44.8,38.0,38.0,33.9,28.0,98,67,47,0.00,40.00,0,-999,0,0.00
2013-2-19,38.0,31.8,27.0,36.0,31.1,27.0,99,97,91,0.00,40.00,0,-999,0,0.00
2013-2-20,49.0,35.7,27.0,39.0,30.4,27.0,98,82,54,0.00,40.00,0,-999,0,0.39
2013-2-21,51.0,39.5,31.0,28.0,26.2,22.0,83,61,34,0.00,40.00,0,-999,0,0.00
2013-2-22,53.0,43.9,38.0,34.0,28.0,21.0,71,53,45,0.00,40.00,0,-999,0,0.00
2013-2-23,46.0,39.5,33.0,37.0,28.1,14.0,98,66,33,0.00,40.00,0,-999,0,0.01
2013-2-24,58.0,42.3,32.0,26.0,18.8,13.0,54,40,20,0.00,40.00,0,-999,0,0.00
2013-2-25,53.0,43.6,38.0,32.0,26.6,22.0,63,51,37,0.00,40.00,0,-999,0,0.00
2013-2-26,58.0,43.8,35.0,27.0,16.4,6.0,60,35,18,0.00,40.00,0,-999,0,0.00
2013-2-27,48.0,47.3,47.0,10.0,6.7,5.0,21,19,17,0.00,40.00,0,-999,0,0.00